Time;durP1;ratioP1;P1;durP2;ratioP2;P2;SDS_P1;SDS_P2;PMS_P1;PMS_P2;Temp;Humidity;BMP_temperature;BMP_pressure;BME280_temperature;BME280_humidity;BME280_pressure;Samples;Min_cycle;Max_cycle;Signal;HPM_P1;HPM_P2
2022/04/30 00:00:31;;;;;;;17.30;10.13;;;;;;;;;;8167812;28;20043;-68
2022/04/30 00:04:31;;;;;;;15.97;10.50;;;;;;;;;;8170012;28;20027;-69
2022/04/30 00:08:32;;;;;;;14.48;9.55;;;;;;;;;;8169635;28;20381;-69
2022/04/30 00:12:33;;;;;;;14.93;9.65;;;;;;;;;;8165505;28;20114;-69
2022/04/30 00:16:33;;;;;;;12.35;9.32;;;;;;;;;;8168140;28;20937;-69
2022/04/30 00:20:36;;;;;;;13.23;9.73;;;;;;;;;;8163842;28;20062;-69
2022/04/30 00:24:38;;;;;;;14.35;8.68;;;;;;;;;;8168524;28;20055;-69
2022/04/30 00:28:38;;;;;;;12.98;9.10;;;;;;;;;;8167837;28;20105;-69
2022/04/30 00:32:38;;;;;;;12.47;8.60;;;;;;;;;;8167551;28;20074;-69
2022/04/30 00:36:38;;;;;;;12.80;9.30;;;;;;;;;;8165691;28;20393;-69
2022/04/30 00:40:38;;;;;;;12.60;9.30;;;;;;;;;;8167469;28;20285;-69
2022/04/30 00:44:39;;;;;;;12.93;8.82;;;;;;;;;;8165567;28;20023;-69
2022/04/30 00:48:39;;;;;;;13.15;8.68;;;;;;;;;;8165200;28;20126;-69
2022/04/30 00:52:40;;;;;;;18.13;9.88;;;;;;;;;;8164075;28;20032;-69
2022/04/30 00:56:44;;;;;;;15.57;10.32;;;;;;;;;;8167090;28;20027;-68
2022/04/30 01:00:45;;;;;;;13.40;9.50;;;;;;;;;;8162274;28;20050;-68
2022/04/30 01:04:46;;;;;;;14.68;9.95;;;;;;;;;;8165500;28;20034;-68
2022/04/30 01:08:48;;;;;;;15.82;9.73;;;;;;;;;;8166948;28;20027;-68
2022/04/30 01:12:48;;;;;;;14.65;10.07;;;;;;;;;;8165670;28;20127;-68
2022/04/30 01:16:49;;;;;;;19.63;10.10;;;;;;;;;;8165441;28;20035;-69
2022/04/30 01:20:51;;;;;;;15.40;9.25;;;;;;;;;;8166636;28;20023;-68
2022/04/30 01:24:55;;;;;;;15.20;10.05;;;;;;;;;;8166769;28;20033;-68
2022/04/30 01:28:56;;;;;;;11.77;9.90;;;;;;;;;;8168089;28;20048;-68
2022/04/30 01:37:25;;;;;;;15.32;9.77;;;;;;;;;;8165704;28;20033;-68
2022/04/30 01:41:26;;;;;;;16.90;9.05;;;;;;;;;;8166324;28;20031;-68
2022/04/30 01:45:27;;;;;;;18.05;10.50;;;;;;;;;;8162523;28;20039;-68
2022/04/30 01:49:27;;;;;;;14.20;9.30;;;;;;;;;;8163738;28;20481;-68
2022/04/30 01:53:28;;;;;;;10.23;8.73;;;;;;;;;;8164841;28;20046;-68
2022/04/30 01:57:28;;;;;;;15.60;9.75;;;;;;;;;;8162341;28;20142;-68
2022/04/30 02:01:28;;;;;;;11.32;8.27;;;;;;;;;;8161664;28;20043;-68
2022/04/30 02:05:28;;;;;;;13.43;8.27;;;;;;;;;;8164190;28;20160;-68
2022/04/30 02:09:30;;;;;;;13.43;8.60;;;;;;;;;;8162298;28;20038;-68
2022/04/30 02:13:31;;;;;;;16.15;10.05;;;;;;;;;;8161148;28;20028;-68
2022/04/30 02:17:36;;;;;;;12.80;8.93;;;;;;;;;;8162686;28;20571;-68
2022/04/30 02:21:37;;;;;;;13.63;8.95;;;;;;;;;;8163482;28;20037;-68
2022/04/30 02:25:37;;;;;;;12.50;8.70;;;;;;;;;;8165853;28;20130;-68
2022/04/30 02:29:38;;;;;;;12.93;9.35;;;;;;;;;;8164646;28;20105;-68
2022/04/30 02:33:40;;;;;;;17.33;10.60;;;;;;;;;;8162198;28;20085;-68
2022/04/30 02:37:44;;;;;;;13.73;10.15;;;;;;;;;;8163825;28;20065;-67
2022/04/30 02:41:44;;;;;;;13.55;10.00;;;;;;;;;;8169756;28;20981;-68
2022/04/30 02:45:45;;;;;;;15.67;9.17;;;;;;;;;;8171531;28;20564;-68
2022/04/30 02:49:45;;;;;;;14.85;9.45;;;;;;;;;;8170896;28;20904;-68
2022/04/30 02:53:45;;;;;;;12.93;8.90;;;;;;;;;;8171319;28;20066;-68
2022/04/30 03:02:06;;;;;;;15.07;9.02;;;;;;;;;;8171196;28;20111;-68
2022/04/30 03:06:06;;;;;;;15.27;9.77;;;;;;;;;;8168828;28;20082;-68
2022/04/30 03:10:07;;;;;;;11.15;9.10;;;;;;;;;;8170312;28;20217;-68
2022/04/30 03:14:07;;;;;;;15.00;10.30;;;;;;;;;;8167257;28;20489;-68
2022/04/30 03:22:26;;;;;;;14.98;9.60;;;;;;;;;;8167792;28;20507;-68
2022/04/30 03:26:28;;;;;;;14.80;9.75;;;;;;;;;;8168456;28;20022;-68
2022/04/30 03:30:29;;;;;;;13.93;9.82;;;;;;;;;;8166337;28;20074;-68
2022/04/30 03:34:32;;;;;;;14.00;10.27;;;;;;;;;;8170700;28;20023;-68
2022/04/30 03:38:33;;;;;;;16.17;9.85;;;;;;;;;;8167838;28;20368;-68
2022/04/30 03:42:33;;;;;;;13.18;9.60;;;;;;;;;;8174854;28;20385;-68
2022/04/30 03:46:34;;;;;;;13.45;10.00;;;;;;;;;;8171363;28;20046;-68
2022/04/30 03:50:34;;;;;;;15.52;10.52;;;;;;;;;;8167014;28;20046;-68
2022/04/30 03:54:35;;;;;;;12.13;9.73;;;;;;;;;;8169626;28;20038;-68
2022/04/30 03:58:35;;;;;;;15.65;9.27;;;;;;;;;;8170144;28;20300;-68
2022/04/30 04:02:39;;;;;;;15.88;9.73;;;;;;;;;;8166895;28;20122;-68
2022/04/30 04:06:42;;;;;;;15.00;10.15;;;;;;;;;;8168598;28;20031;-68
2022/04/30 04:10:42;;;;;;;14.80;9.93;;;;;;;;;;8168341;28;20134;-68
2022/04/30 04:19:03;;;;;;;16.05;9.85;;;;;;;;;;8168513;28;20047;-68
2022/04/30 04:23:03;;;;;;;14.02;10.05;;;;;;;;;;8167221;28;20019;-68
2022/04/30 04:27:03;;;;;;;16.38;10.50;;;;;;;;;;8171107;28;20689;-68
2022/04/30 04:31:03;;;;;;;21.30;10.52;;;;;;;;;;8168430;28;20031;-68
2022/04/30 04:35:04;;;;;;;19.50;12.23;;;;;;;;;;8168445;28;20455;-68
2022/04/30 04:39:14;;;;;;;15.05;10.82;;;;;;;;;;8168428;28;20141;-68
2022/04/30 04:43:14;;;;;;;16.77;11.50;;;;;;;;;;8168855;28;20076;-68
2022/04/30 04:47:14;;;;;;;17.10;11.10;;;;;;;;;;8168245;28;20467;-68
2022/04/30 04:51:14;;;;;;;19.52;12.50;;;;;;;;;;8173292;28;20122;-68
2022/04/30 04:55:15;;;;;;;18.92;13.10;;;;;;;;;;8167749;28;20023;-68
2022/04/30 04:59:16;;;;;;;18.90;13.02;;;;;;;;;;8170270;28;20058;-68
2022/04/30 05:03:16;;;;;;;18.75;13.20;;;;;;;;;;8165434;28;20961;-68
2022/04/30 05:07:17;;;;;;;17.05;13.85;;;;;;;;;;8170866;28;20031;-69
2022/04/30 05:11:17;;;;;;;22.75;15.10;;;;;;;;;;8174478;28;20023;-69
2022/04/30 05:15:17;;;;;;;19.83;15.25;;;;;;;;;;8173582;28;20035;-69
2022/04/30 05:19:18;;;;;;;21.30;15.10;;;;;;;;;;8172526;28;20065;-69
2022/04/30 05:23:18;;;;;;;20.42;13.77;;;;;;;;;;8170731;28;20038;-69
2022/04/30 05:27:18;;;;;;;20.67;14.23;;;;;;;;;;8176403;28;20026;-69
2022/04/30 05:31:18;;;;;;;24.50;14.82;;;;;;;;;;8175131;28;20302;-69
2022/04/30 05:35:19;;;;;;;21.20;13.70;;;;;;;;;;8190049;28;20054;-69
2022/04/30 05:39:19;;;;;;;18.05;14.07;;;;;;;;;;8173123;28;20141;-69
2022/04/30 05:43:19;;;;;;;18.55;13.40;;;;;;;;;;8173964;28;20046;-69
2022/04/30 05:47:20;;;;;;;17.92;13.88;;;;;;;;;;8174448;28;20800;-69
2022/04/30 05:51:21;;;;;;;23.00;15.90;;;;;;;;;;8174644;28;20073;-69
2022/04/30 05:55:21;;;;;;;19.85;14.63;;;;;;;;;;8172946;28;20031;-69
2022/04/30 05:59:21;;;;;;;22.77;16.95;;;;;;;;;;8170790;28;20023;-69
2022/04/30 06:03:21;;;;;;;20.38;15.07;;;;;;;;;;8169311;28;20114;-69
2022/04/30 06:07:22;;;;;;;23.20;15.90;;;;;;;;;;8168804;28;20022;-70
2022/04/30 06:11:22;;;;;;;22.63;15.70;;;;;;;;;;8168376;28;20698;-69
2022/04/30 06:15:22;;;;;;;23.43;15.30;;;;;;;;;;8169648;28;20043;-69
2022/04/30 06:19:22;;;;;;;20.23;15.00;;;;;;;;;;8168370;28;20777;-69
2022/04/30 06:23:22;;;;;;;23.58;16.38;;;;;;;;;;8168173;28;20023;-69
2022/04/30 06:27:23;;;;;;;23.02;16.00;;;;;;;;;;8166917;28;20023;-69
2022/04/30 06:31:23;;;;;;;18.63;15.07;;;;;;;;;;8169510;28;20075;-70
2022/04/30 06:35:23;;;;;;;21.88;15.63;;;;;;;;;;8168973;28;20432;-69
2022/04/30 06:39:23;;;;;;;23.42;16.27;;;;;;;;;;8165744;28;20094;-69
2022/04/30 06:43:23;;;;;;;20.85;16.50;;;;;;;;;;8165384;28;20031;-69
2022/04/30 06:47:24;;;;;;;19.35;15.23;;;;;;;;;;8165123;28;20035;-69
2022/04/30 06:51:24;;;;;;;18.57;15.03;;;;;;;;;;8164091;28;20031;-69
2022/04/30 06:59:45;;;;;;;24.13;15.55;;;;;;;;;;8160329;28;20113;-70
2022/04/30 07:03:47;;;;;;;18.92;15.68;;;;;;;;;;8157251;28;20031;-69
2022/04/30 07:07:47;;;;;;;19.55;15.35;;;;;;;;;;8162446;28;20027;-69
2022/04/30 07:11:48;;;;;;;21.52;15.52;;;;;;;;;;8166308;28;20035;-69
2022/04/30 07:15:48;;;;;;;18.83;14.30;;;;;;;;;;8184982;28;20047;-69
2022/04/30 07:19:48;;;;;;;17.23;14.30;;;;;;;;;;8173142;28;20087;-69
2022/04/30 07:23:48;;;;;;;19.65;14.82;;;;;;;;;;8170018;28;20038;-69
2022/04/30 07:27:49;;;;;;;21.70;15.00;;;;;;;;;;8190480;28;20038;-69
2022/04/30 07:31:49;;;;;;;18.85;14.18;;;;;;;;;;8175205;28;20745;-68
2022/04/30 07:35:49;;;;;;;17.50;13.55;;;;;;;;;;8175550;28;20025;-69
2022/04/30 07:39:51;;;;;;;20.77;14.95;;;;;;;;;;8176830;28;20053;-69
2022/04/30 07:43:51;;;;;;;19.38;14.77;;;;;;;;;;8174893;28;20023;-70
2022/04/30 07:47:51;;;;;;;26.85;14.70;;;;;;;;;;8172529;28;20039;-69
2022/04/30 07:51:57;;;;;;;20.77;15.05;;;;;;;;;;8173455;28;20464;-69
2022/04/30 07:55:58;;;;;;;19.05;14.65;;;;;;;;;;8174323;28;20034;-69
2022/04/30 07:59:58;;;;;;;16.10;13.17;;;;;;;;;;8175201;28;20031;-70
2022/04/30 08:03:58;;;;;;;15.50;13.52;;;;;;;;;;8174645;28;20278;-69
2022/04/30 08:07:58;;;;;;;17.40;12.68;;;;;;;;;;8176304;28;20115;-69
2022/04/30 08:11:58;;;;;;;18.85;13.32;;;;;;;;;;8176211;28;21043;-70
2022/04/30 08:15:59;;;;;;;18.77;13.23;;;;;;;;;;8175074;28;20078;-69
2022/04/30 08:19:59;;;;;;;14.18;12.68;;;;;;;;;;8177087;28;20154;-69
2022/04/30 08:23:59;;;;;;;17.40;13.38;;;;;;;;;;8175505;28;20143;-70
2022/04/30 08:27:59;;;;;;;17.13;13.10;;;;;;;;;;8176647;28;20034;-70
2022/04/30 08:31:59;;;;;;;16.48;13.20;;;;;;;;;;8176141;28;20040;-70
2022/04/30 08:36:00;;;;;;;18.47;14.23;;;;;;;;;;8172222;28;20031;-70
2022/04/30 08:40:00;;;;;;;16.03;13.27;;;;;;;;;;8173186;28;20281;-70
2022/04/30 08:44:00;;;;;;;17.98;12.88;;;;;;;;;;8174038;28;20027;-69
2022/04/30 08:48:01;;;;;;;19.75;13.63;;;;;;;;;;8173732;28;20626;-69
2022/04/30 08:52:01;;;;;;;16.85;12.90;;;;;;;;;;8171734;28;20838;-70
2022/04/30 08:56:05;;;;;;;17.63;13.60;;;;;;;;;;8172690;28;20038;-69
2022/04/30 09:00:07;;;;;;;18.30;13.15;;;;;;;;;;8171605;28;20299;-70
2022/04/30 09:04:07;;;;;;;17.08;13.20;;;;;;;;;;8172322;28;20167;-71
2022/04/30 09:08:07;;;;;;;18.27;13.30;;;;;;;;;;8175268;28;20028;-70
2022/04/30 09:12:12;;;;;;;17.70;13.00;;;;;;;;;;8175349;28;20036;-69
2022/04/30 09:16:20;;;;;;;17.33;12.90;;;;;;;;;;8168989;28;20275;-70
2022/04/30 09:20:20;;;;;;;15.27;11.77;;;;;;;;;;8164737;28;20111;-70
2022/04/30 09:24:20;;;;;;;15.50;12.82;;;;;;;;;;8171040;28;20586;-70
2022/04/30 09:28:24;;;;;;;15.65;11.82;;;;;;;;;;8165103;28;20023;-70
2022/04/30 09:32:26;;;;;;;15.00;12.63;;;;;;;;;;8164176;28;20059;-70
2022/04/30 09:40:57;;;;;;;14.18;11.95;;;;;;;;;;8166815;28;20459;-69
2022/04/30 09:44:57;;;;;;;13.98;11.43;;;;;;;;;;8164052;28;20023;-70
2022/04/30 09:57:36;;;;;;;11.80;10.45;;;;;;;;;;8170426;28;20590;-70
2022/04/30 10:01:37;;;;;;;14.48;10.50;;;;;;;;;;8155608;28;20038;-70
2022/04/30 10:05:39;;;;;;;13.38;10.00;;;;;;;;;;8168426;28;20058;-70
2022/04/30 10:09:42;;;;;;;12.70;9.63;;;;;;;;;;8165055;28;20505;-70
2022/04/30 10:13:48;;;;;;;13.13;10.50;;;;;;;;;;8164153;28;20536;-70
2022/04/30 10:17:57;;;;;;;11.35;10.15;;;;;;;;;;8139910;28;20066;-70
2022/04/30 10:22:11;;;;;;;11.38;9.63;;;;;;;;;;8129372;29;20038;-70
2022/04/30 10:26:11;;;;;;;10.02;8.80;;;;;;;;;;8129071;29;20019;-70
2022/04/30 10:30:19;;;;;;;11.35;9.27;;;;;;;;;;8134420;28;20631;-70
2022/04/30 10:34:27;;;;;;;11.32;9.82;;;;;;;;;;8163412;28;20046;-70
2022/04/30 10:38:28;;;;;;;11.68;9.40;;;;;;;;;;8161846;28;20579;-69
2022/04/30 10:42:42;;;;;;;12.32;10.45;;;;;;;;;;8157851;28;20050;-69
2022/04/30 10:46:42;;;;;;;13.32;10.25;;;;;;;;;;8158047;28;20046;-70
2022/04/30 10:50:44;;;;;;;18.45;9.90;;;;;;;;;;8159958;28;20029;-70
2022/04/30 10:54:46;;;;;;;16.55;10.60;;;;;;;;;;8161940;28;20981;-70
2022/04/30 10:58:49;;;;;;;11.68;9.60;;;;;;;;;;8159433;28;20039;-70
2022/04/30 11:02:49;;;;;;;13.45;10.13;;;;;;;;;;8162692;28;20109;-70
2022/04/30 11:06:52;;;;;;;13.63;9.07;;;;;;;;;;8164730;28;20784;-70
2022/04/30 11:10:52;;;;;;;12.10;9.30;;;;;;;;;;8169616;28;20072;-69
2022/04/30 11:14:54;;;;;;;12.20;9.90;;;;;;;;;;8168531;28;20633;-70
2022/04/30 11:18:58;;;;;;;12.10;10.25;;;;;;;;;;8165829;28;20865;-70
2022/04/30 11:23:00;;;;;;;12.93;10.07;;;;;;;;;;8162811;28;20027;-70
2022/04/30 11:27:04;;;;;;;12.05;10.02;;;;;;;;;;8167148;28;20106;-70
2022/04/30 11:31:04;;;;;;;11.10;9.93;;;;;;;;;;8164879;28;20036;-71
2022/04/30 11:35:05;;;;;;;14.20;10.18;;;;;;;;;;8162978;28;20082;-71
2022/04/30 11:39:05;;;;;;;13.27;9.50;;;;;;;;;;8162336;28;20028;-69
2022/04/30 11:43:05;;;;;;;12.13;9.18;;;;;;;;;;8163652;28;20878;-69
2022/04/30 11:47:06;;;;;;;12.65;9.45;;;;;;;;;;8175947;28;20152;-69
2022/04/30 11:51:06;;;;;;;10.00;8.95;;;;;;;;;;8164051;28;20865;-69
2022/04/30 11:55:07;;;;;;;11.65;9.38;;;;;;;;;;8163543;28;20037;-70
2022/04/30 11:59:08;;;;;;;11.27;8.55;;;;;;;;;;8162298;28;20118;-70
2022/04/30 12:03:09;;;;;;;12.60;9.68;;;;;;;;;;8160504;28;20057;-70
2022/04/30 12:07:11;;;;;;;13.30;9.82;;;;;;;;;;8161562;28;20094;-70
2022/04/30 12:11:12;;;;;;;11.70;9.57;;;;;;;;;;8162370;28;20477;-70
2022/04/30 12:15:26;;;;;;;13.00;9.18;;;;;;;;;;8162748;28;20082;-70
2022/04/30 12:28:14;;;;;;;12.73;9.13;;;;;;;;;;8162714;28;20045;-70
2022/04/30 12:32:18;;;;;;;11.23;8.82;;;;;;;;;;8162168;28;20035;-70
2022/04/30 12:36:19;;;;;;;10.85;9.13;;;;;;;;;;8165308;28;20042;-69
2022/04/30 12:40:19;;;;;;;11.67;9.13;;;;;;;;;;8159568;28;20029;-70
2022/04/30 12:44:19;;;;;;;13.07;9.82;;;;;;;;;;8163658;28;20028;-71
2022/04/30 12:48:19;;;;;;;12.15;8.43;;;;;;;;;;8152127;28;20031;-70
2022/04/30 12:52:19;;;;;;;11.70;8.60;;;;;;;;;;8160627;28;20043;-70
2022/04/30 12:56:23;;;;;;;11.98;9.50;;;;;;;;;;8162020;28;20043;-70
2022/04/30 13:00:23;;;;;;;10.07;8.43;;;;;;;;;;8158889;28;20053;-70
2022/04/30 13:04:23;;;;;;;10.10;8.32;;;;;;;;;;8163807;28;20062;-70
2022/04/30 13:08:24;;;;;;;13.00;9.45;;;;;;;;;;8169100;28;20421;-70
2022/04/30 13:16:43;;;;;;;14.10;9.65;;;;;;;;;;8166268;28;20042;-70
2022/04/30 13:20:43;;;;;;;9.43;8.23;;;;;;;;;;8172303;28;20026;-70
2022/04/30 13:24:43;;;;;;;8.88;8.00;;;;;;;;;;8166632;28;20023;-70
2022/04/30 13:28:44;;;;;;;10.60;9.02;;;;;;;;;;8162470;28;20118;-70
2022/04/30 13:32:44;;;;;;;11.33;8.53;;;;;;;;;;8160901;28;20078;-70
2022/04/30 13:36:44;;;;;;;15.32;8.60;;;;;;;;;;8161919;28;20262;-70
2022/04/30 13:40:45;;;;;;;12.13;8.38;;;;;;;;;;8160942;28;20448;-70
2022/04/30 13:44:45;;;;;;;14.27;8.80;;;;;;;;;;8159416;28;20055;-70
2022/04/30 13:48:45;;;;;;;11.40;8.30;;;;;;;;;;8162020;28;20653;-70
2022/04/30 13:52:45;;;;;;;10.13;7.88;;;;;;;;;;8162175;28;20031;-69
2022/04/30 13:56:46;;;;;;;10.70;7.93;;;;;;;;;;8160915;28;20033;-70
2022/04/30 14:00:46;;;;;;;10.55;8.43;;;;;;;;;;8157273;28;20048;-69
2022/04/30 14:04:46;;;;;;;11.70;8.60;;;;;;;;;;8176865;28;20102;-69
2022/04/30 14:08:46;;;;;;;11.65;8.18;;;;;;;;;;8158808;28;20507;-69
2022/04/30 14:12:46;;;;;;;11.30;7.93;;;;;;;;;;8160551;28;20111;-71
2022/04/30 14:16:47;;;;;;;12.53;8.00;;;;;;;;;;8163200;28;20547;-70
2022/04/30 14:20:48;;;;;;;11.10;7.90;;;;;;;;;;8162943;28;20934;-70
2022/04/30 14:24:48;;;;;;;9.75;7.00;;;;;;;;;;8163347;28;20027;-70
2022/04/30 14:28:50;;;;;;;10.03;6.80;;;;;;;;;;8158460;28;20099;-70
2022/04/30 14:32:50;;;;;;;11.25;6.85;;;;;;;;;;8159533;28;20036;-70
2022/04/30 14:36:51;;;;;;;9.15;6.97;;;;;;;;;;8163370;28;20040;-69
2022/04/30 14:40:51;;;;;;;8.65;6.93;;;;;;;;;;8158598;28;20035;-69
2022/04/30 14:44:51;;;;;;;11.77;6.80;;;;;;;;;;8161946;28;20038;-69
2022/04/30 14:48:52;;;;;;;8.02;6.35;;;;;;;;;;8159146;28;20128;-70
2022/04/30 14:52:52;;;;;;;7.60;6.73;;;;;;;;;;8156313;28;20038;-69
2022/04/30 14:56:52;;;;;;;9.27;6.50;;;;;;;;;;8157782;28;20733;-70
2022/04/30 15:00:52;;;;;;;7.68;5.88;;;;;;;;;;8159031;28;20970;-69
2022/04/30 15:04:53;;;;;;;13.57;5.87;;;;;;;;;;8158913;28;20024;-70
2022/04/30 15:08:59;;;;;;;9.60;6.35;;;;;;;;;;8165842;28;20031;-70
2022/04/30 15:12:59;;;;;;;9.23;5.60;;;;;;;;;;8156045;28;20066;-70
2022/04/30 15:16:59;;;;;;;7.65;5.45;;;;;;;;;;8157674;28;20417;-70
2022/04/30 15:20:59;;;;;;;10.07;5.45;;;;;;;;;;8160962;28;20042;-69
2022/04/30 15:25:00;;;;;;;7.38;5.30;;;;;;;;;;8160018;28;20027;-69
2022/04/30 15:29:00;;;;;;;6.60;5.22;;;;;;;;;;8160534;28;20031;-70
2022/04/30 15:33:01;;;;;;;5.80;4.93;;;;;;;;;;8158169;28;20483;-70
2022/04/30 15:37:02;;;;;;;7.68;5.40;;;;;;;;;;8160761;28;20067;-70
2022/04/30 15:41:02;;;;;;;8.77;5.47;;;;;;;;;;8162009;28;20479;-70
2022/04/30 15:45:03;;;;;;;8.55;6.22;;;;;;;;;;8160945;28;20027;-70
2022/04/30 15:57:42;;;;;;;7.55;5.00;;;;;;;;;;8163279;28;20042;-71
2022/04/30 16:01:42;;;;;;;9.15;5.00;;;;;;;;;;8165180;28;20154;-70
2022/04/30 16:05:42;;;;;;;8.82;4.57;;;;;;;;;;8172779;28;20058;-70
2022/04/30 16:09:42;;;;;;;7.68;4.78;;;;;;;;;;8164688;28;20026;-70
2022/04/30 16:13:43;;;;;;;6.90;5.00;;;;;;;;;;8161580;28;20038;-70
2022/04/30 16:17:43;;;;;;;5.50;4.85;;;;;;;;;;8162908;28;20086;-70
2022/04/30 16:21:44;;;;;;;8.95;4.45;;;;;;;;;;8160896;28;20024;-70
2022/04/30 16:25:44;;;;;;;6.97;5.03;;;;;;;;;;8165075;28;20042;-70
2022/04/30 16:29:44;;;;;;;7.33;4.80;;;;;;;;;;8160612;28;20035;-70
2022/04/30 16:33:44;;;;;;;5.78;4.32;;;;;;;;;;8160888;28;20279;-70
2022/04/30 16:37:46;;;;;;;5.65;4.43;;;;;;;;;;8161502;28;20035;-70
2022/04/30 16:41:46;;;;;;;6.30;4.35;;;;;;;;;;8160789;28;20046;-70
2022/04/30 16:45:48;;;;;;;7.07;4.17;;;;;;;;;;8160301;28;20039;-70
2022/04/30 16:49:48;;;;;;;8.65;4.20;;;;;;;;;;8159357;28;20286;-70
2022/04/30 16:53:48;;;;;;;6.30;4.10;;;;;;;;;;8163257;28;20038;-70
2022/04/30 16:57:49;;;;;;;5.85;3.88;;;;;;;;;;8160090;28;20042;-70
2022/04/30 17:01:49;;;;;;;4.55;3.50;;;;;;;;;;8161242;28;20035;-70
2022/04/30 17:05:50;;;;;;;4.17;3.73;;;;;;;;;;8161864;28;20038;-70
2022/04/30 17:09:53;;;;;;;5.15;3.75;;;;;;;;;;8162859;28;20075;-71
2022/04/30 17:13:53;;;;;;;5.17;3.90;;;;;;;;;;8162930;28;20028;-70
2022/04/30 17:17:54;;;;;;;4.55;3.90;;;;;;;;;;8163591;28;20373;-70
2022/04/30 17:21:54;;;;;;;8.10;4.15;;;;;;;;;;8163723;28;20023;-70
2022/04/30 17:25:55;;;;;;;6.70;3.90;;;;;;;;;;8161899;28;20674;-70
2022/04/30 17:29:55;;;;;;;6.23;3.93;;;;;;;;;;8160424;28;20379;-71
2022/04/30 17:38:14;;;;;;;6.40;4.03;;;;;;;;;;8163126;28;20128;-70
2022/04/30 17:42:15;;;;;;;4.53;3.13;;;;;;;;;;8160232;28;20023;-71
2022/04/30 17:46:16;;;;;;;7.00;4.00;;;;;;;;;;8159437;28;20894;-70
2022/04/30 17:50:16;;;;;;;6.72;3.75;;;;;;;;;;8158370;28;20031;-70
2022/04/30 17:54:17;;;;;;;5.80;4.07;;;;;;;;;;8159029;28;20039;-70
2022/04/30 17:58:17;;;;;;;6.82;4.10;;;;;;;;;;8158087;28;20082;-71
2022/04/30 18:02:19;;;;;;;6.07;4.03;;;;;;;;;;8159148;28;20031;-71
2022/04/30 18:06:19;;;;;;;5.05;3.78;;;;;;;;;;8160788;28;20031;-71
2022/04/30 18:10:20;;;;;;;4.65;3.58;;;;;;;;;;8158752;28;20032;-71
2022/04/30 18:14:24;;;;;;;4.37;3.67;;;;;;;;;;8159312;28;20042;-70
2022/04/30 18:18:24;;;;;;;;;;;;;;;;;;8159767;28;20276;-72
2022/04/30 18:22:24;;;;;;;5.15;3.83;;;;;;;;;;8156697;28;19918;-71
2022/04/30 18:26:25;;;;;;;5.22;4.10;;;;;;;;;;8157909;28;20019;-71
2022/04/30 18:30:25;;;;;;;4.60;3.95;;;;;;;;;;8156438;28;20201;-70
2022/04/30 18:34:26;;;;;;;5.70;4.32;;;;;;;;;;8157543;28;20145;-71
2022/04/30 18:38:26;;;;;;;8.27;4.78;;;;;;;;;;8157756;28;20049;-71
2022/04/30 18:42:26;;;;;;;7.00;4.80;;;;;;;;;;8157922;28;20051;-70
2022/04/30 18:46:28;;;;;;;6.03;5.00;;;;;;;;;;8155963;28;20890;-70
2022/04/30 18:50:28;;;;;;;5.38;4.30;;;;;;;;;;8149163;28;20393;-70
2022/04/30 19:03:06;;;;;;;9.35;5.63;;;;;;;;;;8156470;28;20058;-71
2022/04/30 19:07:07;;;;;;;6.53;4.45;;;;;;;;;;8159020;28;20030;-71
2022/04/30 19:11:08;;;;;;;6.05;4.47;;;;;;;;;;8158636;28;20781;-71
2022/04/30 19:15:08;;;;;;;8.75;4.53;;;;;;;;;;8158449;28;20031;-71
2022/04/30 19:19:10;;;;;;;5.75;4.00;;;;;;;;;;8156034;28;20030;-71
2022/04/30 19:23:14;;;;;;;4.95;4.28;;;;;;;;;;8153543;28;20054;-71
2022/04/30 19:27:14;;;;;;;7.43;4.68;;;;;;;;;;8164444;28;20671;-71
2022/04/30 19:31:14;;;;;;;5.07;4.30;;;;;;;;;;8163437;28;20035;-69
2022/04/30 19:35:16;;;;;;;6.32;4.63;;;;;;;;;;8161647;28;20936;-70
2022/04/30 19:39:19;;;;;;;7.10;4.20;;;;;;;;;;8163633;28;20037;-70
2022/04/30 19:43:19;;;;;;;7.22;4.85;;;;;;;;;;8159566;28;20146;-69
2022/04/30 19:47:19;;;;;;;7.05;4.22;;;;;;;;;;8159555;28;20075;-68
2022/04/30 19:51:19;;;;;;;5.45;4.50;;;;;;;;;;8163777;28;20043;-68
2022/04/30 19:55:19;;;;;;;6.57;4.60;;;;;;;;;;8164191;28;20034;-68
2022/04/30 19:59:20;;;;;;;5.67;4.63;;;;;;;;;;8159368;28;21176;-68
2022/04/30 20:03:22;;;;;;;5.67;4.63;;;;;;;;;;8164172;28;20301;-69
2022/04/30 20:07:22;;;;;;;4.68;3.65;;;;;;;;;;8167702;28;20901;-68
2022/04/30 20:20:03;;;;;;;6.65;4.65;;;;;;;;;;8161833;28;20102;-68
2022/04/30 20:24:03;;;;;;;4.53;4.13;;;;;;;;;;8164254;28;20035;-68
2022/04/30 20:28:05;;;;;;;8.50;5.15;;;;;;;;;;8164103;28;20351;-69
2022/04/30 20:36:40;;;;;;;6.32;4.38;;;;;;;;;;8165193;28;20038;-69
2022/04/30 20:40:40;;;;;;;6.55;4.55;;;;;;;;;;8164195;28;20085;-69
2022/04/30 20:44:41;;;;;;;4.90;4.37;;;;;;;;;;8164174;28;20127;-69
2022/04/30 20:48:42;;;;;;;5.45;4.35;;;;;;;;;;8163669;28;20271;-69
2022/04/30 20:52:42;;;;;;;7.03;4.38;;;;;;;;;;8177410;28;20064;-69
2022/04/30 20:56:43;;;;;;;5.60;4.45;;;;;;;;;;8164117;28;20027;-68
2022/04/30 21:00:43;;;;;;;9.35;4.82;;;;;;;;;;8161968;28;20081;-69
2022/04/30 21:04:44;;;;;;;9.02;5.05;;;;;;;;;;8165742;28;20030;-68
2022/04/30 21:08:45;;;;;;;6.85;5.55;;;;;;;;;;8172731;28;20142;-69
2022/04/30 21:12:45;;;;;;;9.05;5.80;;;;;;;;;;8162648;28;20054;-69
2022/04/30 21:16:46;;;;;;;8.68;5.03;;;;;;;;;;8164809;28;20028;-69
2022/04/30 21:20:46;;;;;;;7.15;5.65;;;;;;;;;;8162246;28;20026;-69
2022/04/30 21:24:46;;;;;;;8.45;6.40;;;;;;;;;;8163749;28;20023;-69
2022/04/30 21:28:47;;;;;;;7.33;5.63;;;;;;;;;;8161313;28;20015;-69
2022/04/30 21:32:47;;;;;;;7.10;5.22;;;;;;;;;;8162122;28;20270;-69
2022/04/30 21:36:47;;;;;;;5.72;4.70;;;;;;;;;;8160870;28;20031;-69
2022/04/30 21:45:06;;;;;;;8.57;6.30;;;;;;;;;;8161546;28;20038;-69
2022/04/30 21:49:08;;;;;;;7.97;5.57;;;;;;;;;;8160682;28;20035;-68
2022/04/30 21:53:08;;;;;;;10.02;6.93;;;;;;;;;;8161797;28;20309;-69
2022/04/30 22:01:30;;;;;;;6.35;5.45;;;;;;;;;;8161381;28;20891;-68
2022/04/30 22:05:30;;;;;;;10.05;5.68;;;;;;;;;;8162292;28;20035;-69
2022/04/30 22:09:30;;;;;;;7.00;6.03;;;;;;;;;;8160908;28;20102;-69
2022/04/30 22:13:35;;;;;;;8.40;5.47;;;;;;;;;;8159459;28;20023;-68
2022/04/30 22:17:35;;;;;;;8.02;6.32;;;;;;;;;;8160246;28;20047;-68
2022/04/30 22:21:37;;;;;;;11.02;5.97;;;;;;;;;;8160884;28;20070;-68
2022/04/30 22:25:37;;;;;;;7.10;4.80;;;;;;;;;;8157368;28;20035;-69
2022/04/30 22:29:37;;;;;;;7.45;5.63;;;;;;;;;;8159944;28;20919;-69
2022/04/30 22:33:38;;;;;;;6.85;5.38;;;;;;;;;;8156719;28;20079;-68
2022/04/30 22:37:38;;;;;;;6.47;5.22;;;;;;;;;;8161019;28;20038;-68
2022/04/30 22:45:57;;;;;;;10.73;7.07;;;;;;;;;;8160619;28;20050;-68
2022/04/30 22:49:59;;;;;;;12.55;10.05;;;;;;;;;;8159296;28;20023;-68
2022/04/30 22:53:59;;;;;;;12.50;7.65;;;;;;;;;;8160174;28;20052;-69
2022/04/30 22:57:59;;;;;;;12.60;8.20;;;;;;;;;;8164292;28;20070;-69
2022/04/30 23:01:59;;;;;;;14.07;9.70;;;;;;;;;;8166048;28;20054;-69
2022/04/30 23:05:59;;;;;;;11.82;8.40;;;;;;;;;;8169504;28;20103;-69
2022/04/30 23:10:00;;;;;;;12.43;8.57;;;;;;;;;;8163521;28;20034;-69
2022/04/30 23:14:00;;;;;;;11.50;8.15;;;;;;;;;;8163600;28;20406;-69
2022/04/30 23:18:00;;;;;;;11.48;8.30;;;;;;;;;;8164482;28;20252;-68
2022/04/30 23:22:03;;;;;;;8.65;6.80;;;;;;;;;;8168097;28;20776;-69
2022/04/30 23:26:03;;;;;;;6.68;5.85;;;;;;;;;;8169083;28;20122;-68
2022/04/30 23:30:05;;;;;;;14.02;8.63;;;;;;;;;;8166112;28;20097;-69
2022/04/30 23:34:06;;;;;;;13.43;9.88;;;;;;;;;;8163798;28;20057;-68
2022/04/30 23:38:06;;;;;;;10.25;7.72;;;;;;;;;;8165242;28;20098;-68
2022/04/30 23:42:07;;;;;;;10.90;6.80;;;;;;;;;;8165723;28;20039;-68
2022/04/30 23:46:07;;;;;;;11.20;7.07;;;;;;;;;;8166648;28;20259;-69
2022/04/30 23:50:08;;;;;;;8.63;6.87;;;;;;;;;;8166982;28;20035;-69
2022/04/30 23:54:09;;;;;;;8.70;5.97;;;;;;;;;;8168210;28;20051;-69
2022/04/30 23:58:09;;;;;;;6.50;5.80;;;;;;;;;;8168647;28;20059;-69
